Time;durP1;ratioP1;P1;durP2;ratioP2;P2;SDS_P1;SDS_P2;PMS_P1;PMS_P2;Temp;Humidity;BMP_temperature;BMP_pressure;BME280_temperature;BME280_humidity;BME280_pressure;Samples;Min_cycle;Max_cycle;Signal;HPM_P1;HPM_P2
2023/06/01 00:00:56;;;;;;;5.82;3.70;;;;;;;;;;5014105;28;20469;-65
2023/06/01 00:03:24;;;;;;;12.70;3.83;;;;;;;;;;5014189;28;20424;-65
2023/06/01 00:05:52;;;;;;;8.00;4.20;;;;;;;;;;5025793;28;20520;-65
2023/06/01 00:08:20;;;;;;;6.10;3.57;;;;;;;;;;5023459;28;20432;-66
2023/06/01 00:10:47;;;;;;;6.00;3.80;;;;;;;;;;5027795;28;20558;-65
2023/06/01 00:13:14;;;;;;;8.98;4.20;;;;;;;;;;5025825;28;20412;-65
2023/06/01 00:15:41;;;;;;;9.23;4.67;;;;;;;;;;5025889;28;20986;-65
2023/06/01 00:18:12;;;;;;;7.63;4.40;;;;;;;;;;5024762;28;20411;-65
2023/06/01 00:20:39;;;;;;;10.65;4.82;;;;;;;;;;5024243;28;20423;-65
2023/06/01 00:23:08;;;;;;;8.18;4.70;;;;;;;;;;5023646;28;20895;-65
2023/06/01 00:25:35;;;;;;;10.40;4.72;;;;;;;;;;5022355;28;20420;-65
2023/06/01 00:28:02;;;;;;;10.13;4.87;;;;;;;;;;5023770;28;20438;-65
2023/06/01 00:30:29;;;;;;;8.95;4.88;;;;;;;;;;5025373;28;20427;-65
2023/06/01 00:32:56;;;;;;;8.13;4.63;;;;;;;;;;5022334;28;20844;-65
2023/06/01 00:35:23;;;;;;;10.40;5.13;;;;;;;;;;5022746;28;20421;-65
2023/06/01 00:37:50;;;;;;;9.05;5.40;;;;;;;;;;5025505;28;20421;-65
2023/06/01 00:40:19;;;;;;;8.07;5.10;;;;;;;;;;5022921;28;20455;-65
2023/06/01 00:42:46;;;;;;;9.15;5.10;;;;;;;;;;5024938;28;20467;-65
2023/06/01 00:45:13;;;;;;;10.75;5.55;;;;;;;;;;5023521;28;20485;-65
2023/06/01 00:47:41;;;;;;;10.68;5.35;;;;;;;;;;5022970;28;20451;-65
2023/06/01 00:50:09;;;;;;;10.45;5.47;;;;;;;;;;5020553;28;20415;-65
2023/06/01 00:52:37;;;;;;;13.02;6.03;;;;;;;;;;5023917;28;20488;-65
2023/06/01 00:55:04;;;;;;;10.63;5.95;;;;;;;;;;5022777;28;20420;-65
2023/06/01 00:57:33;;;;;;;9.45;5.80;;;;;;;;;;5027902;28;20411;-65
2023/06/01 01:00:00;;;;;;;11.50;6.10;;;;;;;;;;5031519;28;20423;-65
2023/06/01 01:02:31;;;;;;;12.82;6.35;;;;;;;;;;5022355;28;20416;-65
2023/06/01 01:04:59;;;;;;;13.07;6.73;;;;;;;;;;5021268;28;20896;-65
2023/06/01 01:07:29;;;;;;;11.10;6.60;;;;;;;;;;5022846;28;20419;-65
2023/06/01 01:10:00;;;;;;;13.15;6.47;;;;;;;;;;5025329;28;20817;-66
2023/06/01 01:12:30;;;;;;;13.30;5.80;;;;;;;;;;5024958;28;20473;-65
2023/06/01 01:15:03;;;;;;;10.60;6.00;;;;;;;;;;5024377;28;20880;-65
2023/06/01 01:17:33;;;;;;;10.80;6.50;;;;;;;;;;5023640;28;20845;-65
2023/06/01 01:20:08;;;;;;;11.55;6.65;;;;;;;;;;5028142;28;20420;-65
2023/06/01 01:22:48;;;;;;;12.43;7.57;;;;;;;;;;5021231;28;20416;-65
2023/06/01 01:25:22;;;;;;;11.88;7.43;;;;;;;;;;5022919;28;20411;-65
2023/06/01 01:27:59;;;;;;;12.18;7.80;;;;;;;;;;5012290;28;20429;-65
2023/06/01 01:30:29;;;;;;;14.75;6.93;;;;;;;;;;5012480;28;20471;-65
2023/06/01 01:32:59;;;;;;;12.20;8.50;;;;;;;;;;5022820;28;20487;-65
2023/06/01 01:35:27;;;;;;;14.35;8.30;;;;;;;;;;5021122;28;20409;-65
2023/06/01 01:37:55;;;;;;;15.30;8.73;;;;;;;;;;5021347;28;20413;-65
2023/06/01 01:40:22;;;;;;;16.20;8.40;;;;;;;;;;5022377;28;20424;-65
2023/06/01 01:42:50;;;;;;;14.38;8.32;;;;;;;;;;5021870;28;20941;-65
2023/06/01 01:45:18;;;;;;;14.40;8.43;;;;;;;;;;5022654;28;20516;-65
2023/06/01 01:47:50;;;;;;;16.63;8.70;;;;;;;;;;5024561;28;20469;-65
2023/06/01 01:50:20;;;;;;;12.70;9.00;;;;;;;;;;5024664;28;20427;-65
2023/06/01 01:52:48;;;;;;;16.25;10.20;;;;;;;;;;5024981;28;20893;-65
2023/06/01 01:55:17;;;;;;;15.73;9.80;;;;;;;;;;5022200;28;20420;-65
2023/06/01 01:57:45;;;;;;;19.23;9.85;;;;;;;;;;5025440;28;20907;-65
2023/06/01 02:00:13;;;;;;;20.08;11.20;;;;;;;;;;5022926;28;20465;-65
2023/06/01 02:02:40;;;;;;;18.65;11.35;;;;;;;;;;5022512;28;20450;-65
2023/06/01 02:05:09;;;;;;;17.85;10.68;;;;;;;;;;5022451;28;20432;-65
2023/06/01 02:07:36;;;;;;;17.85;10.77;;;;;;;;;;5016479;28;20419;-65
2023/06/01 02:10:03;;;;;;;17.95;11.18;;;;;;;;;;5022771;28;20428;-65
2023/06/01 02:12:30;;;;;;;21.08;11.48;;;;;;;;;;5023055;28;20756;-65
2023/06/01 02:14:57;;;;;;;20.38;11.57;;;;;;;;;;5022834;28;20415;-65
2023/06/01 02:17:26;;;;;;;19.45;11.23;;;;;;;;;;5022810;28;20891;-65
2023/06/01 02:19:53;;;;;;;20.38;12.20;;;;;;;;;;5022735;28;20927;-65
2023/06/01 02:22:21;;;;;;;20.52;12.23;;;;;;;;;;5020745;28;20824;-65
2023/06/01 02:24:48;;;;;;;20.52;11.05;;;;;;;;;;5022551;28;20423;-66
2023/06/01 02:27:16;;;;;;;24.00;12.80;;;;;;;;;;5021334;28;20416;-65
2023/06/01 02:29:43;;;;;;;24.67;12.85;;;;;;;;;;5019839;28;20440;-66
2023/06/01 02:32:10;;;;;;;21.50;12.55;;;;;;;;;;5021973;28;20481;-65
2023/06/01 02:34:37;;;;;;;23.30;13.33;;;;;;;;;;5022466;28;20421;-66
2023/06/01 02:37:04;;;;;;;22.70;12.50;;;;;;;;;;5011151;28;20443;-66
2023/06/01 02:39:32;;;;;;;21.55;12.40;;;;;;;;;;5011211;28;20429;-67
2023/06/01 02:42:00;;;;;;;23.40;13.60;;;;;;;;;;5022839;28;20488;-68
2023/06/01 02:44:27;;;;;;;22.85;13.27;;;;;;;;;;5023455;28;20788;-66
2023/06/01 02:46:54;;;;;;;22.15;13.30;;;;;;;;;;5020527;28;20428;-65
2023/06/01 02:49:21;;;;;;;26.27;14.30;;;;;;;;;;5023792;28;20859;-66
2023/06/01 02:51:48;;;;;;;26.73;14.35;;;;;;;;;;5021285;28;20499;-67
2023/06/01 02:54:15;;;;;;;25.33;14.40;;;;;;;;;;5019565;28;20452;-66
2023/06/01 02:56:43;;;;;;;27.15;15.18;;;;;;;;;;5022731;28;20474;-66
2023/06/01 02:59:10;;;;;;;24.88;15.05;;;;;;;;;;5019607;28;20412;-66
2023/06/01 03:01:38;;;;;;;27.38;16.27;;;;;;;;;;5023270;28;20421;-66
2023/06/01 03:04:05;;;;;;;28.00;15.68;;;;;;;;;;5023238;28;20501;-66
2023/06/01 03:06:32;;;;;;;25.92;15.35;;;;;;;;;;5019115;28;20913;-66
2023/06/01 03:08:59;;;;;;;34.53;17.75;;;;;;;;;;5022930;28;20431;-66
2023/06/01 03:11:26;;;;;;;30.25;18.13;;;;;;;;;;5022188;28;20419;-65
2023/06/01 03:13:56;;;;;;;30.17;18.45;;;;;;;;;;5020727;28;20413;-66
2023/06/01 03:16:23;;;;;;;34.90;20.13;;;;;;;;;;5023281;28;20419;-66
2023/06/01 03:18:52;;;;;;;33.05;20.23;;;;;;;;;;5023917;28;20415;-66
2023/06/01 03:21:19;;;;;;;36.90;22.48;;;;;;;;;;5022659;28;20431;-67
2023/06/01 03:23:46;;;;;;;38.97;22.92;;;;;;;;;;5019860;28;20909;-66
2023/06/01 03:26:13;;;;;;;36.03;20.80;;;;;;;;;;5022995;28;20985;-66
2023/06/01 03:28:41;;;;;;;43.42;24.48;;;;;;;;;;5022660;28;20429;-66
2023/06/01 03:31:11;;;;;;;34.10;20.77;;;;;;;;;;5022927;28;20477;-66
2023/06/01 03:33:38;;;;;;;41.65;25.75;;;;;;;;;;5021623;28;20813;-65
2023/06/01 03:36:06;;;;;;;44.00;24.98;;;;;;;;;;5020388;28;20503;-66
2023/06/01 03:38:33;;;;;;;38.93;23.63;;;;;;;;;;5019219;28;20429;-65
2023/06/01 03:41:00;;;;;;;44.80;25.23;;;;;;;;;;5023852;28;20425;-66
2023/06/01 03:43:28;;;;;;;40.40;24.92;;;;;;;;;;5023269;28;20420;-65
2023/06/01 03:45:55;;;;;;;37.60;23.92;;;;;;;;;;5019263;28;20420;-66
2023/06/01 03:48:23;;;;;;;37.88;23.83;;;;;;;;;;5025385;28;20419;-66
2023/06/01 03:50:51;;;;;;;41.13;24.00;;;;;;;;;;5021020;28;20424;-66
2023/06/01 03:53:18;;;;;;;38.90;23.03;;;;;;;;;;5019861;28;20518;-65
2023/06/01 03:55:45;;;;;;;35.88;22.50;;;;;;;;;;5019144;28;20420;-66
2023/06/01 03:58:12;;;;;;;39.83;24.38;;;;;;;;;;5019498;28;20413;-67
2023/06/01 04:00:39;;;;;;;37.42;22.70;;;;;;;;;;5019476;28;20412;-66
2023/06/01 04:03:07;;;;;;;36.25;22.55;;;;;;;;;;5021346;28;20835;-65
2023/06/01 04:05:36;;;;;;;37.65;22.52;;;;;;;;;;5020857;28;20903;-66
2023/06/01 04:08:03;;;;;;;37.60;22.38;;;;;;;;;;5021975;28;20818;-66
2023/06/01 04:10:30;;;;;;;35.83;22.20;;;;;;;;;;5023093;28;20526;-66
2023/06/01 04:12:57;;;;;;;33.42;21.77;;;;;;;;;;5023905;28;20428;-66
2023/06/01 04:15:24;;;;;;;30.30;21.00;;;;;;;;;;5013917;28;20533;-66
2023/06/01 04:17:51;;;;;;;33.97;21.73;;;;;;;;;;5027407;28;20836;-66
2023/06/01 04:20:18;;;;;;;34.88;21.13;;;;;;;;;;5027009;28;20827;-67
2023/06/01 04:22:47;;;;;;;35.45;21.88;;;;;;;;;;5024999;28;20407;-66
2023/06/01 04:25:17;;;;;;;33.55;21.05;;;;;;;;;;5022337;28;20430;-66
2023/06/01 04:27:45;;;;;;;38.00;23.27;;;;;;;;;;5019950;28;20428;-66
2023/06/01 04:30:13;;;;;;;35.95;22.17;;;;;;;;;;5028277;28;20430;-66
2023/06/01 04:32:41;;;;;;;34.15;21.05;;;;;;;;;;5024210;28;20485;-66
2023/06/01 04:35:09;;;;;;;42.53;23.92;;;;;;;;;;5018016;28;20522;-66
2023/06/01 04:37:37;;;;;;;36.50;22.25;;;;;;;;;;5023095;28;20425;-66
2023/06/01 04:40:07;;;;;;;38.60;21.90;;;;;;;;;;5027710;28;20427;-67
2023/06/01 04:42:34;;;;;;;36.53;22.48;;;;;;;;;;5025587;28;20430;-66
2023/06/01 04:45:04;;;;;;;38.85;24.08;;;;;;;;;;5027288;28;20482;-66
2023/06/01 04:47:31;;;;;;;34.33;20.48;;;;;;;;;;5027947;28;21185;-66
2023/06/01 04:49:58;;;;;;;35.25;22.30;;;;;;;;;;5022862;28;20427;-65
2023/06/01 04:52:26;;;;;;;41.22;23.65;;;;;;;;;;5024130;28;20887;-65
2023/06/01 04:54:53;;;;;;;37.17;23.73;;;;;;;;;;5022149;28;20427;-67
2023/06/01 04:57:23;;;;;;;29.73;19.05;;;;;;;;;;5023358;28;20785;-66
2023/06/01 04:59:51;;;;;;;40.05;25.40;;;;;;;;;;5012665;28;20935;-66
2023/06/01 05:02:18;;;;;;;38.13;23.85;;;;;;;;;;5013013;28;20507;-66
2023/06/01 05:04:45;;;;;;;33.47;21.73;;;;;;;;;;5012524;28;20421;-64
2023/06/01 05:07:12;;;;;;;34.13;21.48;;;;;;;;;;5012757;28;20472;-66
2023/06/01 05:09:39;;;;;;;36.20;22.85;;;;;;;;;;5023109;28;20433;-67
2023/06/01 05:12:07;;;;;;;38.10;24.70;;;;;;;;;;5027275;28;20485;-66
2023/06/01 05:14:36;;;;;;;37.85;23.25;;;;;;;;;;5021391;28;20501;-65
2023/06/01 05:17:03;;;;;;;37.07;23.13;;;;;;;;;;5025596;28;20499;-67
2023/06/01 05:19:30;;;;;;;36.97;20.88;;;;;;;;;;5022703;28;20467;-65
2023/06/01 05:21:57;;;;;;;40.67;22.08;;;;;;;;;;5023382;28;20473;-66
2023/06/01 05:24:24;;;;;;;33.40;22.00;;;;;;;;;;5022403;28;20420;-65
2023/06/01 05:26:51;;;;;;;38.83;23.73;;;;;;;;;;5020579;28;20425;-66
2023/06/01 05:29:18;;;;;;;39.03;23.40;;;;;;;;;;5022915;28;20927;-65
2023/06/01 05:31:47;;;;;;;38.80;23.57;;;;;;;;;;5023266;28;20510;-66
2023/06/01 05:34:14;;;;;;;36.03;23.85;;;;;;;;;;5023340;28;20441;-67
2023/06/01 05:36:41;;;;;;;34.00;19.85;;;;;;;;;;5022586;28;20423;-66
2023/06/01 05:39:09;;;;;;;29.85;18.65;;;;;;;;;;5022860;28;20415;-66
2023/06/01 05:41:35;;;;;;;32.50;20.08;;;;;;;;;;5026282;28;20823;-67
2023/06/01 05:44:02;;;;;;;27.20;18.40;;;;;;;;;;5023618;28;20484;-66
2023/06/01 05:46:29;;;;;;;34.45;20.13;;;;;;;;;;5020888;28;20413;-66
2023/06/01 05:48:58;;;;;;;28.85;19.83;;;;;;;;;;5021317;28;20420;-66
2023/06/01 05:51:25;;;;;;;30.77;20.02;;;;;;;;;;5023715;28;20788;-65
2023/06/01 05:53:52;;;;;;;31.25;19.77;;;;;;;;;;5021665;28;20419;-66
2023/06/01 05:56:19;;;;;;;28.90;19.25;;;;;;;;;;5023182;28;20428;-65
2023/06/01 05:58:50;;;;;;;27.80;19.30;;;;;;;;;;5022657;28;20468;-66
2023/06/01 06:01:17;;;;;;;28.92;19.77;;;;;;;;;;5022906;28;20447;-65
2023/06/01 06:03:45;;;;;;;27.38;19.15;;;;;;;;;;5021035;28;20420;-67
2023/06/01 06:06:13;;;;;;;28.45;18.92;;;;;;;;;;5024183;28;20418;-67
2023/06/01 06:08:40;;;;;;;27.23;19.10;;;;;;;;;;5022574;28;20547;-67
2023/06/01 06:11:07;;;;;;;25.10;18.75;;;;;;;;;;5023489;28;21101;-66
2023/06/01 06:13:34;;;;;;;29.17;19.08;;;;;;;;;;5020449;28;20417;-66
2023/06/01 06:16:01;;;;;;;25.45;18.85;;;;;;;;;;5023297;28;20432;-66
2023/06/01 06:18:28;;;;;;;27.80;18.50;;;;;;;;;;5020793;28;20904;-66
2023/06/01 06:20:55;;;;;;;26.35;18.02;;;;;;;;;;5023847;28;20418;-67
2023/06/01 06:23:23;;;;;;;25.85;17.77;;;;;;;;;;5020780;28;20897;-66
2023/06/01 06:25:51;;;;;;;23.73;16.88;;;;;;;;;;5022360;28;20464;-65
2023/06/01 06:28:18;;;;;;;24.48;17.08;;;;;;;;;;5021314;28;20441;-67
2023/06/01 06:30:45;;;;;;;24.00;17.13;;;;;;;;;;5025785;28;20504;-67
2023/06/01 06:33:12;;;;;;;22.83;16.17;;;;;;;;;;5020806;28;20420;-66
2023/06/01 06:35:41;;;;;;;22.80;15.18;;;;;;;;;;5020700;28;20413;-66
2023/06/01 06:38:08;;;;;;;23.48;14.88;;;;;;;;;;5019881;28;20478;-65
2023/06/01 06:40:36;;;;;;;21.50;14.40;;;;;;;;;;5024656;28;20419;-65
2023/06/01 06:43:03;;;;;;;20.13;13.55;;;;;;;;;;5026474;28;20854;-63
2023/06/01 06:45:30;;;;;;;20.75;14.18;;;;;;;;;;5023373;28;20423;-64
2023/06/01 06:47:57;;;;;;;22.70;16.30;;;;;;;;;;5019586;28;20420;-64
2023/06/01 06:50:24;;;;;;;21.52;15.63;;;;;;;;;;5026905;28;20485;-63
2023/06/01 06:52:51;;;;;;;22.70;16.00;;;;;;;;;;5023948;28;20900;-64
2023/06/01 06:55:18;;;;;;;22.30;15.45;;;;;;;;;;5022626;28;20421;-62
2023/06/01 06:57:47;;;;;;;19.27;14.68;;;;;;;;;;5021455;28;20418;-64
2023/06/01 07:00:14;;;;;;;22.98;15.75;;;;;;;;;;5022277;28;20473;-65
2023/06/01 07:02:44;;;;;;;22.35;16.38;;;;;;;;;;5020646;28;20419;-64
2023/06/01 07:05:11;;;;;;;23.02;15.23;;;;;;;;;;5021523;28;20425;-64
2023/06/01 07:07:38;;;;;;;20.48;13.93;;;;;;;;;;5021463;28;20425;-64
2023/06/01 07:10:06;;;;;;;21.77;15.45;;;;;;;;;;5022170;28;20426;-66
2023/06/01 07:12:33;;;;;;;22.25;16.95;;;;;;;;;;5025121;28;20473;-64
2023/06/01 07:15:03;;;;;;;24.38;15.35;;;;;;;;;;5021094;28;20418;-65
2023/06/01 07:17:30;;;;;;;24.23;14.48;;;;;;;;;;5019950;28;20420;-64
2023/06/01 07:19:57;;;;;;;20.83;13.88;;;;;;;;;;5021410;28;20423;-62
2023/06/01 07:22:24;;;;;;;20.00;14.93;;;;;;;;;;5018947;28;20515;-65
2023/06/01 07:24:51;;;;;;;20.50;14.45;;;;;;;;;;5018339;28;20502;-64
2023/06/01 07:27:20;;;;;;;19.02;13.32;;;;;;;;;;5021570;28;20446;-65
2023/06/01 07:29:47;;;;;;;20.48;14.65;;;;;;;;;;5022826;28;20430;-66
2023/06/01 07:32:15;;;;;;;20.45;13.80;;;;;;;;;;5022380;28;20430;-65
2023/06/01 07:34:42;;;;;;;21.60;14.68;;;;;;;;;;5028904;28;20480;-66
2023/06/01 07:37:10;;;;;;;21.20;13.10;;;;;;;;;;5020993;28;20468;-64
2023/06/01 07:39:36;;;;;;;19.65;13.30;;;;;;;;;;5024002;28;20822;-63
2023/06/01 07:42:04;;;;;;;19.50;12.95;;;;;;;;;;5025929;28;20497;-63
2023/06/01 07:44:31;;;;;;;20.58;13.35;;;;;;;;;;5018111;28;20956;-61
2023/06/01 07:46:58;;;;;;;23.23;13.30;;;;;;;;;;5023661;28;20423;-63
2023/06/01 07:49:27;;;;;;;18.48;12.23;;;;;;;;;;5028434;28;20422;-65
2023/06/01 07:51:54;;;;;;;20.27;13.73;;;;;;;;;;5027743;28;20425;-64
2023/06/01 07:54:21;;;;;;;19.23;12.70;;;;;;;;;;5028344;28;20776;-63
2023/06/01 07:56:48;;;;;;;18.15;12.48;;;;;;;;;;5024782;28;20419;-63
2023/06/01 07:59:15;;;;;;;21.27;13.53;;;;;;;;;;5021841;28;20470;-64
2023/06/01 08:01:42;;;;;;;19.17;12.77;;;;;;;;;;5013753;28;20467;-63
2023/06/01 08:04:10;;;;;;;19.52;13.32;;;;;;;;;;5033875;28;20419;-64
2023/06/01 08:06:41;;;;;;;16.95;12.10;;;;;;;;;;5025884;28;20424;-63
2023/06/01 08:09:09;;;;;;;20.98;13.63;;;;;;;;;;5027866;28;20847;-63
2023/06/01 08:11:37;;;;;;;17.52;11.77;;;;;;;;;;5026388;28;20533;-61
2023/06/01 08:14:07;;;;;;;17.52;11.77;;;;;;;;;;5024888;28;20466;-62
2023/06/01 08:16:34;;;;;;;18.57;11.70;;;;;;;;;;5021103;28;20503;-64
2023/06/01 08:19:01;;;;;;;18.87;11.40;;;;;;;;;;5024755;28;20577;-62
2023/06/01 08:21:28;;;;;;;18.30;11.35;;;;;;;;;;5027143;28;20776;-64
2023/06/01 08:23:57;;;;;;;21.40;11.70;;;;;;;;;;5025102;28;20415;-63
2023/06/01 08:26:25;;;;;;;19.08;11.70;;;;;;;;;;5021035;28;20466;-61
2023/06/01 08:28:52;;;;;;;19.02;11.82;;;;;;;;;;5022931;28;20415;-63
2023/06/01 08:31:20;;;;;;;19.90;12.10;;;;;;;;;;5020530;28;20979;-59
2023/06/01 08:33:47;;;;;;;16.55;11.52;;;;;;;;;;5023630;28;20414;-64
2023/06/01 08:36:14;;;;;;;17.57;12.00;;;;;;;;;;5027264;28;20461;-66
2023/06/01 08:38:41;;;;;;;19.60;12.25;;;;;;;;;;5029847;28;20411;-64
2023/06/01 08:41:12;;;;;;;16.80;11.75;;;;;;;;;;5022860;28;20465;-63
2023/06/01 08:43:40;;;;;;;19.48;11.90;;;;;;;;;;5011546;28;20409;-63
2023/06/01 08:46:07;;;;;;;17.77;12.18;;;;;;;;;;5020449;28;20425;-62
2023/06/01 08:48:35;;;;;;;15.88;10.57;;;;;;;;;;5022127;28;21035;-61
2023/06/01 08:51:02;;;;;;;18.03;12.27;;;;;;;;;;5020634;28;20419;-62
2023/06/01 08:53:30;;;;;;;18.98;12.40;;;;;;;;;;5022199;28;20415;-63
2023/06/01 08:55:57;;;;;;;20.30;12.90;;;;;;;;;;5021283;28;20467;-62
2023/06/01 08:58:27;;;;;;;19.42;13.05;;;;;;;;;;5022904;28;20424;-62
2023/06/01 09:00:54;;;;;;;18.33;12.48;;;;;;;;;;5019206;28;20404;-63
2023/06/01 09:03:22;;;;;;;21.92;13.35;;;;;;;;;;5019631;28;20412;-62
2023/06/01 09:05:49;;;;;;;17.50;12.63;;;;;;;;;;5026055;28;20506;-62
2023/06/01 09:08:16;;;;;;;20.50;13.23;;;;;;;;;;5020878;28;20915;-62
2023/06/01 09:10:43;;;;;;;19.95;12.70;;;;;;;;;;5025891;28;20428;-64
2023/06/01 09:13:10;;;;;;;18.17;12.20;;;;;;;;;;5019894;28;20922;-65
2023/06/01 09:15:51;;;;;;;18.50;12.55;;;;;;;;;;5020117;28;20420;-64
2023/06/01 09:18:18;;;;;;;18.60;11.82;;;;;;;;;;5021994;28;20421;-64
2023/06/01 09:20:45;;;;;;;17.25;11.55;;;;;;;;;;5018612;28;20420;-65
2023/06/01 09:23:13;;;;;;;15.95;10.95;;;;;;;;;;5022798;28;20417;-65
2023/06/01 09:25:40;;;;;;;20.63;11.67;;;;;;;;;;5019492;28;20408;-66
2023/06/01 09:28:07;;;;;;;18.55;11.30;;;;;;;;;;5018955;28;20413;-66
2023/06/01 09:30:42;;;;;;;18.33;11.73;;;;;;;;;;5019167;28;20428;-69
2023/06/01 09:33:12;;;;;;;20.23;12.25;;;;;;;;;;5023578;28;20480;-69
2023/06/01 09:35:41;;;;;;;18.38;12.15;;;;;;;;;;5017709;28;20420;-70
2023/06/01 09:38:08;;;;;;;17.85;11.75;;;;;;;;;;5022379;28;20879;-70
2023/06/01 09:40:35;;;;;;;18.10;12.48;;;;;;;;;;5022847;28;20414;-71
2023/06/01 09:43:02;;;;;;;17.67;11.88;;;;;;;;;;5020351;28;20420;-71
2023/06/01 09:45:32;;;;;;;18.58;11.00;;;;;;;;;;5022921;28;20899;-68
2023/06/01 09:48:17;;;;;;;18.67;12.30;;;;;;;;;;5017854;28;20530;-67
2023/06/01 09:50:44;;;;;;;21.40;12.75;;;;;;;;;;5013077;28;20913;-65
2023/06/01 09:53:11;;;;;;;16.08;11.60;;;;;;;;;;5021536;28;20793;-65
2023/06/01 09:55:57;;;;;;;17.48;11.50;;;;;;;;;;5024371;28;20954;-66
2023/06/01 09:58:24;;;;;;;17.30;11.63;;;;;;;;;;5027239;28;20459;-64
2023/06/01 10:00:52;;;;;;;18.75;11.32;;;;;;;;;;5020873;28;20493;-64
2023/06/01 10:03:21;;;;;;;17.73;10.95;;;;;;;;;;5018258;28;20457;-64
2023/06/01 10:05:49;;;;;;;16.52;11.63;;;;;;;;;;5019426;28;20992;-64
2023/06/01 10:08:17;;;;;;;16.45;11.68;;;;;;;;;;5020924;28;20463;-65
2023/06/01 10:10:44;;;;;;;19.58;12.18;;;;;;;;;;5026205;28;20959;-64
2023/06/01 10:13:12;;;;;;;18.20;11.20;;;;;;;;;;5022197;28;20782;-65
2023/06/01 10:15:39;;;;;;;16.48;11.45;;;;;;;;;;5010599;28;20417;-64
2023/06/01 10:18:06;;;;;;;18.40;11.50;;;;;;;;;;5018953;28;20431;-64
2023/06/01 10:20:36;;;;;;;17.52;11.55;;;;;;;;;;5017461;28;20428;-65
2023/06/01 10:23:03;;;;;;;17.85;12.07;;;;;;;;;;5021767;28;20427;-65
2023/06/01 10:25:31;;;;;;;17.20;11.55;;;;;;;;;;5020880;28;20429;-65
2023/06/01 10:28:00;;;;;;;17.58;11.95;;;;;;;;;;5018819;28;20422;-64
2023/06/01 10:30:27;;;;;;;20.90;13.37;;;;;;;;;;5019662;28;20466;-63
2023/06/01 10:32:54;;;;;;;21.50;14.38;;;;;;;;;;5019338;28;20456;-65
2023/06/01 10:35:40;;;;;;;21.00;13.37;;;;;;;;;;5020848;28;20972;-68
2023/06/01 10:38:24;;;;;;;22.45;13.38;;;;;;;;;;5023523;28;20516;-69
2023/06/01 10:40:51;;;;;;;20.20;13.15;;;;;;;;;;5020112;28;20425;-64
2023/06/01 10:43:48;;;;;;;24.63;14.07;;;;;;;;;;5014837;28;20887;-65
2023/06/01 10:46:34;;;;;;;18.67;13.32;;;;;;;;;;4978794;28;20481;-65
2023/06/01 10:49:01;;;;;;;19.67;13.55;;;;;;;;;;5018005;28;20507;-68
2023/06/01 10:51:29;;;;;;;23.50;13.85;;;;;;;;;;5022556;28;20770;-67
2023/06/01 10:54:17;;;;;;;23.02;14.50;;;;;;;;;;5019930;28;20422;-68
2023/06/01 10:56:44;;;;;;;22.77;15.27;;;;;;;;;;5020921;28;20423;-66
2023/06/01 10:59:12;;;;;;;23.75;15.60;;;;;;;;;;5020366;28;20606;-67
2023/06/01 11:01:40;;;;;;;22.55;14.52;;;;;;;;;;5018607;28;20413;-65
2023/06/01 11:04:07;;;;;;;23.00;14.77;;;;;;;;;;5021978;28;20979;-65
2023/06/01 11:06:35;;;;;;;22.30;14.52;;;;;;;;;;5019736;28;20482;-66
2023/06/01 11:09:06;;;;;;;27.73;16.05;;;;;;;;;;5021935;28;20897;-66
2023/06/01 11:11:51;;;;;;;23.25;15.07;;;;;;;;;;5019563;28;20434;-64
2023/06/01 11:14:19;;;;;;;23.33;15.35;;;;;;;;;;5023378;28;20415;-64
2023/06/01 11:16:47;;;;;;;22.23;15.70;;;;;;;;;;5018299;28;20444;-65
2023/06/01 11:19:20;;;;;;;24.15;17.40;;;;;;;;;;5021412;28;20523;-64
2023/06/01 11:21:48;;;;;;;26.45;17.92;;;;;;;;;;5023891;28;20438;-65
2023/06/01 11:24:18;;;;;;;26.73;17.88;;;;;;;;;;5028961;28;20462;-63
2023/06/01 11:26:45;;;;;;;25.52;17.05;;;;;;;;;;5025076;28;20823;-64
2023/06/01 11:29:15;;;;;;;26.75;18.67;;;;;;;;;;5023339;28;20424;-65
2023/06/01 11:31:43;;;;;;;24.67;17.75;;;;;;;;;;5020601;28;20545;-66
2023/06/01 11:34:11;;;;;;;29.60;19.27;;;;;;;;;;5020904;28;20427;-66
2023/06/01 11:36:40;;;;;;;26.15;17.52;;;;;;;;;;5021789;28;20450;-66
2023/06/01 11:39:08;;;;;;;21.88;16.90;;;;;;;;;;5022454;28;20506;-66
2023/06/01 11:41:37;;;;;;;28.40;19.42;;;;;;;;;;5024391;28;20422;-65
2023/06/01 11:44:04;;;;;;;30.58;19.85;;;;;;;;;;5024435;28;20424;-65
2023/06/01 11:46:31;;;;;;;27.98;18.23;;;;;;;;;;5021378;28;20420;-66
2023/06/01 11:49:02;;;;;;;28.95;20.38;;;;;;;;;;5028216;28;20419;-66
2023/06/01 11:51:30;;;;;;;26.02;18.50;;;;;;;;;;5024633;28;20423;-66
2023/06/01 11:53:57;;;;;;;26.50;18.83;;;;;;;;;;5019672;28;20503;-66
2023/06/01 11:56:30;;;;;;;25.63;17.75;;;;;;;;;;5022021;28;20419;-66
2023/06/01 11:58:59;;;;;;;21.75;15.70;;;;;;;;;;5022364;28;21111;-66
2023/06/01 12:01:27;;;;;;;26.13;16.85;;;;;;;;;;5026117;28;20495;-66
2023/06/01 12:03:54;;;;;;;25.38;17.48;;;;;;;;;;5023614;28;20415;-66
2023/06/01 12:06:22;;;;;;;23.45;15.30;;;;;;;;;;5026688;28;20421;-66
2023/06/01 12:08:50;;;;;;;22.90;15.27;;;;;;;;;;5021355;28;20467;-66
2023/06/01 12:11:19;;;;;;;17.70;11.47;;;;;;;;;;5025821;28;20457;-66
2023/06/01 12:13:48;;;;;;;27.80;16.60;;;;;;;;;;5021143;28;20424;-66
2023/06/01 12:16:17;;;;;;;23.30;15.18;;;;;;;;;;5026379;28;20423;-66
2023/06/01 12:18:44;;;;;;;25.83;16.02;;;;;;;;;;5021441;28;20420;-66
2023/06/01 12:21:12;;;;;;;20.20;14.18;;;;;;;;;;5018959;28;20412;-65
2023/06/01 12:23:39;;;;;;;21.85;13.77;;;;;;;;;;5020981;28;20416;-65
2023/06/01 12:26:08;;;;;;;18.77;12.93;;;;;;;;;;5023033;28;20467;-65
2023/06/01 12:28:52;;;;;;;19.35;12.95;;;;;;;;;;5020049;28;20437;-66
2023/06/01 12:31:21;;;;;;;18.45;12.80;;;;;;;;;;5020568;28;20527;-66
2023/06/01 12:33:48;;;;;;;19.25;13.63;;;;;;;;;;5023016;28;20427;-66
2023/06/01 12:36:32;;;;;;;19.20;13.85;;;;;;;;;;5020389;28;20420;-65
2023/06/01 12:38:59;;;;;;;20.45;14.02;;;;;;;;;;5022571;28;20430;-65
2023/06/01 12:41:27;;;;;;;20.58;13.27;;;;;;;;;;5027884;28;20443;-65
2023/06/01 12:43:54;;;;;;;19.03;12.37;;;;;;;;;;5020081;28;20470;-66
2023/06/01 12:46:24;;;;;;;16.98;11.55;;;;;;;;;;5023929;28;20427;-65
2023/06/01 12:48:52;;;;;;;17.87;11.87;;;;;;;;;;5028134;28;20831;-65
2023/06/01 12:51:20;;;;;;;20.65;11.38;;;;;;;;;;5026410;28;20427;-65
2023/06/01 12:53:47;;;;;;;15.88;9.82;;;;;;;;;;5017056;28;20955;-66
2023/06/01 12:56:15;;;;;;;16.42;10.90;;;;;;;;;;5029399;28;20454;-65
2023/06/01 12:58:42;;;;;;;11.73;8.77;;;;;;;;;;5023113;28;20429;-66
2023/06/01 13:01:09;;;;;;;18.10;10.82;;;;;;;;;;5019780;28;20415;-65
2023/06/01 13:03:37;;;;;;;15.05;10.82;;;;;;;;;;5020541;28;20423;-65
2023/06/01 13:06:04;;;;;;;16.63;9.35;;;;;;;;;;5009365;28;20417;-65
2023/06/01 13:08:32;;;;;;;15.30;10.73;;;;;;;;;;4963115;28;1733395;-65
2023/06/01 13:10:58;;;;;;;13.48;8.70;;;;;;;;;;5026569;28;20515;-65
2023/06/01 13:13:26;;;;;;;12.47;9.63;;;;;;;;;;5021423;28;20431;-65
2023/06/01 13:15:53;;;;;;;15.50;9.38;;;;;;;;;;5021949;28;20432;-64
2023/06/01 13:18:20;;;;;;;12.70;8.75;;;;;;;;;;5021774;28;20415;-65
2023/06/01 13:20:48;;;;;;;10.82;8.07;;;;;;;;;;5021820;28;21095;-65
2023/06/01 13:23:16;;;;;;;12.48;8.57;;;;;;;;;;5020810;28;20474;-65
2023/06/01 13:25:43;;;;;;;11.50;7.63;;;;;;;;;;5021629;28;20431;-65
2023/06/01 13:28:10;;;;;;;13.52;8.98;;;;;;;;;;5022970;28;20903;-65
2023/06/01 13:30:37;;;;;;;12.75;8.02;;;;;;;;;;5021966;28;20832;-64
2023/06/01 13:33:04;;;;;;;10.98;8.00;;;;;;;;;;5024015;28;20990;-65
2023/06/01 13:35:31;;;;;;;12.27;8.45;;;;;;;;;;5020915;28;20424;-65
2023/06/01 13:38:00;;;;;;;13.50;8.60;;;;;;;;;;5024766;28;20421;-65
2023/06/01 13:40:27;;;;;;;13.05;8.18;;;;;;;;;;5028174;28;20416;-65
2023/06/01 13:42:54;;;;;;;12.57;8.50;;;;;;;;;;5023652;28;20424;-65
2023/06/01 13:45:22;;;;;;;20.27;9.07;;;;;;;;;;5024275;28;20473;-65
2023/06/01 13:47:50;;;;;;;12.05;7.20;;;;;;;;;;5019633;28;20422;-65
2023/06/01 13:50:17;;;;;;;11.40;7.80;;;;;;;;;;5022953;28;20429;-64
2023/06/01 13:52:45;;;;;;;11.95;7.82;;;;;;;;;;5023146;28;20453;-64
2023/06/01 13:55:14;;;;;;;11.57;7.82;;;;;;;;;;5022763;28;20427;-65
2023/06/01 13:57:41;;;;;;;10.45;7.57;;;;;;;;;;5023447;28;20415;-65
2023/06/01 14:00:09;;;;;;;9.73;7.57;;;;;;;;;;5022498;28;20469;-65
2023/06/01 14:02:36;;;;;;;12.02;7.93;;;;;;;;;;5023196;28;20772;-66
2023/06/01 14:05:03;;;;;;;12.60;8.13;;;;;;;;;;5025001;28;20489;-65
2023/06/01 14:07:30;;;;;;;13.95;7.75;;;;;;;;;;5023616;28;20418;-64
2023/06/01 14:09:58;;;;;;;11.98;8.25;;;;;;;;;;5026791;28;20422;-64
2023/06/01 14:12:26;;;;;;;12.23;8.38;;;;;;;;;;5023994;28;20431;-64
2023/06/01 14:14:53;;;;;;;10.45;7.07;;;;;;;;;;5017927;28;20451;-64
2023/06/01 14:17:20;;;;;;;11.60;7.70;;;;;;;;;;5021778;28;20480;-64
2023/06/01 14:19:47;;;;;;;11.90;7.82;;;;;;;;;;5022369;28;20427;-64
2023/06/01 14:22:14;;;;;;;11.93;7.50;;;;;;;;;;5019011;28;20420;-64
2023/06/01 14:24:41;;;;;;;10.10;7.20;;;;;;;;;;5018313;28;20420;-66
2023/06/01 14:27:08;;;;;;;11.98;6.72;;;;;;;;;;5020499;28;20407;-66